Time;durP1;ratioP1;P1;durP2;ratioP2;P2;SDS_P1;SDS_P2;PMS_P1;PMS_P2;Temp;Humidity;BMP_temperature;BMP_pressure;BME280_temperature;BME280_humidity;BME280_pressure;Samples;Min_cycle;Max_cycle;Signal;HPM_P1;HPM_P2
2024/04/22 00:02:06;;;;;;;6.13;5.53;;;5.60;99.90;;;;;;5454779;26;20394;-63
2024/04/22 00:04:36;;;;;;;6.87;5.93;;;5.60;99.90;;;;;;5455087;26;20458;-64
2024/04/22 00:07:04;;;;;;;6.70;6.10;;;5.60;99.90;;;;;;5453160;26;20429;-64
2024/04/22 00:09:34;;;;;;;7.10;6.50;;;5.60;99.90;;;;;;5453131;26;21016;-65
2024/04/22 00:12:01;;;;;;;8.60;7.00;;;5.60;99.90;;;;;;5452918;26;20464;-65
2024/04/22 00:14:31;;;;;;;7.57;6.80;;;5.60;99.90;;;;;;5453125;26;20454;-65
2024/04/22 00:16:59;;;;;;;8.13;7.30;;;5.60;99.90;;;;;;5452902;26;20443;-65
2024/04/22 00:19:31;;;;;;;7.63;6.93;;;5.60;99.90;;;;;;5453073;26;20453;-65
2024/04/22 00:21:59;;;;;;;8.07;7.00;;;5.60;99.90;;;;;;5454437;26;20438;-65
2024/04/22 00:24:29;;;;;;;8.77;7.97;;;5.60;99.90;;;;;;5453210;26;20869;-65
2024/04/22 00:26:57;;;;;;;8.57;7.67;;;5.50;99.90;;;;;;5454472;26;20392;-65
2024/04/22 00:29:27;;;;;;;9.80;8.83;;;5.50;99.90;;;;;;5453198;26;20559;-65
2024/04/22 00:31:54;;;;;;;9.50;8.50;;;5.60;99.90;;;;;;5452758;26;20520;-65
2024/04/22 00:34:24;;;;;;;9.70;8.70;;;5.50;99.90;;;;;;5452492;26;20438;-65
2024/04/22 00:36:54;;;;;;;9.73;8.83;;;5.50;99.90;;;;;;5452846;26;20441;-65
2024/04/22 00:39:24;;;;;;;8.83;8.13;;;5.50;99.90;;;;;;5452656;26;20502;-65
2024/04/22 00:41:53;;;;;;;8.70;7.93;;;5.50;99.90;;;;;;5452399;26;20486;-65
2024/04/22 00:44:23;;;;;;;8.70;7.80;;;5.50;99.90;;;;;;5453612;26;20439;-65
2024/04/22 00:46:50;;;;;;;8.90;8.00;;;5.50;99.90;;;;;;5456076;26;20890;-65
2024/04/22 00:49:20;;;;;;;9.10;8.30;;;5.40;99.90;;;;;;5456025;26;20553;-65
2024/04/22 00:51:48;;;;;;;8.20;7.40;;;5.40;99.90;;;;;;5455715;26;21017;-65
2024/04/22 00:54:21;;;;;;;9.53;8.30;;;5.40;99.90;;;;;;5423976;26;20462;-65
2024/04/22 00:56:49;;;;;;;10.83;9.73;;;5.40;99.90;;;;;;5456823;26;20445;-65
2024/04/22 00:59:19;;;;;;;9.47;8.43;;;5.40;99.90;;;;;;5424123;26;20446;-65
2024/04/22 01:01:46;;;;;;;9.50;8.50;;;5.40;99.90;;;;;;5456934;26;20837;-65
2024/04/22 01:04:17;;;;;;;8.87;8.03;;;5.30;99.90;;;;;;5455971;26;20552;-65
2024/04/22 01:06:45;;;;;;;8.20;7.40;;;5.30;99.90;;;;;;5457299;26;20750;-64
2024/04/22 01:09:15;;;;;;;10.23;8.07;;;5.30;99.90;;;;;;5455894;26;20489;-64
2024/04/22 01:11:45;;;;;;;12.23;6.93;;;5.30;99.90;;;;;;5456253;26;20473;-64
2024/04/22 01:14:15;;;;;;;9.87;7.73;;;5.20;99.90;;;;;;5456748;26;20455;-64
2024/04/22 01:16:52;;;;;;;7.33;6.63;;;5.20;99.90;;;;;;5455585;26;20449;-64
2024/04/22 01:19:22;;;;;;;7.57;6.87;;;5.20;99.90;;;;;;5456749;26;20497;-64
2024/04/22 01:21:53;;;;;;;7.47;6.30;;;5.20;99.90;;;;;;5455396;26;20449;-64
2024/04/22 01:24:23;;;;;;;7.80;6.60;;;5.10;99.90;;;;;;5456790;26;20931;-65
2024/04/22 01:26:52;;;;;;;7.50;6.80;;;5.10;99.90;;;;;;5455571;26;20494;-64
2024/04/22 01:29:22;;;;;;;7.80;7.10;;;5.10;99.90;;;;;;5455654;26;20491;-65
2024/04/22 01:31:50;;;;;;;7.07;6.37;;;5.10;99.90;;;;;;5455498;26;20454;-65
2024/04/22 01:34:20;;;;;;;7.10;6.00;;;5.00;99.90;;;;;;5424013;26;20492;-64
2024/04/22 01:36:47;;;;;;;8.33;7.53;;;5.00;99.90;;;;;;5423671;26;20837;-64
2024/04/22 01:39:20;;;;;;;11.40;8.80;;;5.00;99.90;;;;;;5455594;26;20521;-64
2024/04/22 01:41:47;;;;;;;14.20;9.70;;;5.00;99.90;;;;;;5456634;26;20646;-64
2024/04/22 01:44:17;;;;;;;12.40;9.00;;;5.00;99.90;;;;;;5455409;26;20548;-64
2024/04/22 01:46:44;;;;;;;12.10;9.30;;;5.00;99.90;;;;;;5423490;26;20457;-64
2024/04/22 01:49:16;;;;;;;11.60;9.20;;;4.90;99.90;;;;;;5455467;26;20521;-64
2024/04/22 01:51:44;;;;;;;13.83;8.57;;;4.90;99.90;;;;;;5456276;26;20493;-65
2024/04/22 01:54:14;;;;;;;11.70;8.80;;;4.90;99.90;;;;;;5455059;26;21076;-64
2024/04/22 01:56:45;;;;;;;11.93;8.30;;;4.90;99.90;;;;;;5454582;26;20519;-64
2024/04/22 01:59:16;;;;;;;10.87;8.03;;;4.80;99.90;;;;;;5423489;26;20505;-64
2024/04/22 02:01:43;;;;;;;8.57;7.10;;;4.80;99.90;;;;;;5455382;26;20453;-64
2024/04/22 02:04:13;;;;;;;10.53;8.23;;;4.80;99.90;;;;;;5455862;26;20438;-64
2024/04/22 02:06:41;;;;;;;9.70;7.80;;;4.70;99.90;;;;;;5455326;26;20437;-64
2024/04/22 02:09:11;;;;;;;10.23;8.23;;;4.70;99.90;;;;;;5455501;26;20434;-64
2024/04/22 02:11:38;;;;;;;10.97;7.27;;;4.70;99.90;;;;;;5455711;26;20457;-64
2024/04/22 02:14:11;;;;;;;9.50;7.30;;;4.70;99.90;;;;;;5455329;26;20501;-64
2024/04/22 02:16:38;;;;;;;9.07;7.53;;;4.60;99.90;;;;;;5423451;26;20453;-64
2024/04/22 02:19:08;;;;;;;11.97;8.43;;;4.60;99.90;;;;;;5455573;26;20441;-64
2024/04/22 02:21:36;;;;;;;11.63;7.97;;;4.60;99.90;;;;;;5455355;26;20509;-64
2024/04/22 02:24:06;;;;;;;11.20;7.87;;;4.60;99.90;;;;;;5455353;26;20489;-64
2024/04/22 02:26:33;;;;;;;8.03;7.07;;;4.60;99.90;;;;;;5456559;26;20394;-64
2024/04/22 02:29:03;;;;;;;23.97;12.73;;;4.60;99.90;;;;;;5455303;26;20434;-64
2024/04/22 02:31:33;;;;;;;23.07;11.07;;;4.50;99.90;;;;;;5455213;26;20810;-65
2024/04/22 02:34:03;;;;;;;18.80;11.63;;;4.60;99.90;;;;;;5454948;26;20547;-65
2024/04/22 02:36:31;;;;;;;13.53;9.50;;;4.50;99.90;;;;;;5456126;26;20480;-65
2024/04/22 02:39:01;;;;;;;11.47;9.13;;;4.50;99.90;;;;;;5454900;26;20447;-65
2024/04/22 02:41:28;;;;;;;10.57;8.03;;;4.50;99.90;;;;;;5454790;26;20552;-65
2024/04/22 02:43:58;;;;;;;10.87;7.40;;;4.50;99.90;;;;;;5455011;26;20441;-65
2024/04/22 02:46:25;;;;;;;10.17;7.70;;;4.50;99.90;;;;;;5454728;26;20501;-65
2024/04/22 02:48:58;;;;;;;7.77;6.40;;;4.40;99.90;;;;;;5454744;26;20862;-66
2024/04/22 02:51:25;;;;;;;8.50;7.40;;;4.40;99.90;;;;;;5456036;26;20476;-64
2024/04/22 02:53:55;;;;;;;8.33;6.70;;;4.40;99.90;;;;;;5454749;26;20494;-65
2024/04/22 02:56:23;;;;;;;8.67;6.60;;;4.40;99.90;;;;;;5454840;26;20437;-65
2024/04/22 02:58:53;;;;;;;8.57;7.67;;;4.40;99.90;;;;;;5454629;26;20445;-64
2024/04/22 03:01:20;;;;;;;10.03;6.73;;;4.30;99.90;;;;;;5454560;26;20461;-64
2024/04/22 03:03:50;;;;;;;8.00;6.73;;;4.30;99.90;;;;;;5454656;26;20438;-64
2024/04/22 03:06:20;;;;;;;7.53;6.70;;;4.30;99.90;;;;;;5453895;26;20505;-64
2024/04/22 03:08:52;;;;;;;9.43;7.30;;;4.20;99.90;;;;;;5455514;26;20435;-64
2024/04/22 03:11:20;;;;;;;8.63;6.87;;;4.20;99.90;;;;;;5416379;26;1020601;-64
2024/04/22 03:13:50;;;;;;;8.73;7.40;;;4.20;99.90;;;;;;5454455;26;20780;-64
2024/04/22 03:16:18;;;;;;;8.70;7.73;;;4.20;99.90;;;;;;5454415;26;20433;-64
2024/04/22 03:18:49;;;;;;;11.40;10.20;;;4.10;99.90;;;;;;5454385;26;20433;-64
2024/04/22 03:21:16;;;;;;;10.70;9.13;;;4.10;99.90;;;;;;5454739;26;20796;-64
2024/04/22 03:23:49;;;;;;;14.77;10.47;;;4.10;99.90;;;;;;5422475;26;20453;-64
2024/04/22 03:26:16;;;;;;;13.00;9.63;;;4.10;99.90;;;;;;5455957;26;20492;-64
2024/04/22 03:28:46;;;;;;;14.77;10.60;;;4.00;99.90;;;;;;5454314;26;20438;-64
2024/04/22 03:31:13;;;;;;;10.10;8.30;;;4.00;99.90;;;;;;5454265;26;20505;-65
2024/04/22 03:33:43;;;;;;;10.40;7.10;;;4.00;99.90;;;;;;5454491;26;20967;-65
2024/04/22 03:36:10;;;;;;;8.60;7.70;;;4.00;99.90;;;;;;5454533;26;20434;-65
2024/04/22 03:38:41;;;;;;;9.07;7.80;;;3.90;99.90;;;;;;5454297;26;20792;-65
2024/04/22 03:41:13;;;;;;;10.53;8.50;;;3.80;99.90;;;;;;5422317;26;20465;-64
2024/04/22 03:43:43;;;;;;;10.80;8.07;;;3.80;99.90;;;;;;5422472;26;20493;-64
2024/04/22 03:51:47;;;;;;;8.10;7.30;;;3.70;99.90;;;;;;5455494;26;20493;-64
2024/04/22 03:54:17;;;;;;;9.43;7.83;;;3.70;99.90;;;;;;5455570;26;20429;-64
2024/04/22 03:56:49;;;;;;;8.40;7.37;;;3.70;99.90;;;;;;5454098;26;20441;-64
2024/04/22 03:59:19;;;;;;;8.40;7.47;;;3.60;99.90;;;;;;5455490;26;20427;-64
2024/04/22 04:01:47;;;;;;;8.10;7.20;;;3.60;99.90;;;;;;5454076;26;20515;-63
2024/04/22 04:04:17;;;;;;;8.00;7.17;;;3.60;99.90;;;;;;5453920;26;20441;-63
2024/04/22 04:06:44;;;;;;;9.10;7.27;;;3.60;99.90;;;;;;5455276;26;20394;-63
2024/04/22 04:09:14;;;;;;;9.23;7.03;;;3.50;99.90;;;;;;5454017;26;20490;-63
2024/04/22 04:11:42;;;;;;;8.20;7.40;;;3.50;99.90;;;;;;5453570;26;20564;-63
2024/04/22 04:14:15;;;;;;;9.03;7.90;;;3.50;99.90;;;;;;5453565;26;20442;-64
2024/04/22 04:16:43;;;;;;;8.50;7.40;;;3.50;99.90;;;;;;5455210;26;20390;-63
2024/04/22 04:19:13;;;;;;;8.87;7.97;;;3.40;99.90;;;;;;5424512;26;20562;-63
2024/04/22 04:21:41;;;;;;;9.63;8.73;;;3.40;99.90;;;;;;5457276;26;20454;-63
2024/04/22 04:24:11;;;;;;;15.23;12.40;;;3.40;99.90;;;;;;5457384;26;20452;-63
2024/04/22 04:26:38;;;;;;;13.13;11.40;;;3.40;99.90;;;;;;5457951;26;20534;-63
2024/04/22 04:29:09;;;;;;;11.43;10.23;;;3.30;99.90;;;;;;5457633;26;20790;-63
2024/04/22 04:31:39;;;;;;;13.10;10.20;;;3.30;99.90;;;;;;5458298;26;20441;-63
2024/04/22 04:34:09;;;;;;;10.40;9.40;;;3.30;99.90;;;;;;5425936;26;20485;-63
2024/04/22 04:36:37;;;;;;;10.10;8.93;;;3.30;99.90;;;;;;5457172;26;20453;-63
2024/04/22 04:39:07;;;;;;;9.77;8.77;;;3.30;99.90;;;;;;5457118;26;20981;-63
2024/04/22 04:41:34;;;;;;;10.60;8.83;;;3.30;99.90;;;;;;5457192;26;20450;-63
2024/04/22 04:44:04;;;;;;;9.50;8.00;;;3.30;99.90;;;;;;5457063;26;20486;-63
2024/04/22 04:46:32;;;;;;;9.90;8.90;;;3.30;99.90;;;;;;5456981;26;20490;-63
2024/04/22 04:49:04;;;;;;;10.27;9.17;;;3.30;99.90;;;;;;5457010;26;21026;-63
2024/04/22 04:51:31;;;;;;;11.97;10.37;;;3.30;99.90;;;;;;5458032;26;20555;-63
2024/04/22 04:54:01;;;;;;;11.90;10.60;;;3.30;99.90;;;;;;5456868;26;20434;-63
2024/04/22 04:56:29;;;;;;;11.90;10.00;;;3.30;99.90;;;;;;5456827;26;20782;-63
2024/04/22 04:58:59;;;;;;;12.47;11.17;;;3.30;99.90;;;;;;5456971;26;20433;-63
2024/04/22 05:01:26;;;;;;;12.17;10.23;;;3.30;99.90;;;;;;5456665;26;20517;-63
2024/04/22 05:03:57;;;;;;;11.33;10.13;;;3.30;99.90;;;;;;5456858;26;20493;-63
2024/04/22 05:06:27;;;;;;;11.57;10.37;;;3.30;99.90;;;;;;5456944;26;20448;-63
2024/04/22 05:08:57;;;;;;;12.93;11.63;;;3.40;99.90;;;;;;5425160;26;20446;-63
2024/04/22 05:11:24;;;;;;;15.60;13.93;;;3.40;99.90;;;;;;5456851;26;20458;-64
2024/04/22 05:13:55;;;;;;;14.07;12.57;;;3.40;99.90;;;;;;5456814;26;20446;-65
2024/04/22 05:16:22;;;;;;;12.40;11.10;;;3.50;99.90;;;;;;5457928;26;20743;-64
2024/04/22 05:18:52;;;;;;;12.50;10.03;;;3.50;99.90;;;;;;5455778;26;20547;-64
2024/04/22 05:21:19;;;;;;;12.27;11.10;;;3.60;99.90;;;;;;5455989;26;20839;-64
2024/04/22 05:23:52;;;;;;;12.83;11.50;;;3.60;99.90;;;;;;5456207;26;20442;-64
2024/04/22 05:26:19;;;;;;;11.40;10.20;;;3.60;99.90;;;;;;5457438;26;20780;-65
2024/04/22 05:28:49;;;;;;;11.53;10.40;;;3.70;99.90;;;;;;5456405;26;20438;-65
2024/04/22 05:31:16;;;;;;;11.93;9.80;;;3.70;99.90;;;;;;5455473;26;20531;-63
2024/04/22 05:36:32;;;;;;;11.60;10.40;;;3.80;99.90;;;;;;5424325;26;20501;-63
2024/04/22 05:39:05;;;;;;;10.03;9.03;;;3.90;99.90;;;;;;5457216;26;20394;-62
2024/04/22 05:41:35;;;;;;;11.13;9.93;;;3.90;99.90;;;;;;5424157;26;20492;-63
2024/04/22 05:44:06;;;;;;;12.30;11.00;;;4.00;99.90;;;;;;5455863;26;20965;-62
2024/04/22 05:46:36;;;;;;;11.10;10.07;;;4.00;99.90;;;;;;5457268;26;20394;-63
2024/04/22 05:49:06;;;;;;;12.17;10.97;;;4.00;99.90;;;;;;5424129;26;20505;-63
2024/04/22 05:51:36;;;;;;;12.73;10.67;;;4.10;99.90;;;;;;5456345;26;20555;-62
2024/04/22 05:54:09;;;;;;;13.90;12.40;;;4.20;99.90;;;;;;5456598;26;20857;-63
2024/04/22 05:56:36;;;;;;;14.67;13.07;;;4.20;99.90;;;;;;5456616;26;20390;-62
2024/04/22 05:59:09;;;;;;;12.60;11.30;;;4.30;99.90;;;;;;5455868;26;21005;-62
2024/04/22 06:01:37;;;;;;;10.07;9.07;;;4.30;99.90;;;;;;5457001;26;21088;-63
2024/04/22 06:04:07;;;;;;;7.37;6.47;;;4.30;99.90;;;;;;5423908;26;20771;-62
2024/04/22 06:06:36;;;;;;;6.80;6.10;;;4.40;99.90;;;;;;5456878;26;20438;-62
2024/04/22 06:09:12;;;;;;;7.70;6.13;;;4.40;99.90;;;;;;5460827;26;20422;-63
2024/04/22 06:11:39;;;;;;;7.80;6.80;;;4.40;99.90;;;;;;5458431;26;20461;-63
2024/04/22 06:14:26;;;;;;;6.87;6.27;;;4.50;99.90;;;;;;5456514;26;20771;-64
2024/04/22 06:16:53;;;;;;;7.60;6.20;;;4.50;99.90;;;;;;5455580;26;20433;-63
2024/04/22 06:19:23;;;;;;;6.93;6.07;;;4.50;99.90;;;;;;5455747;26;20449;-63
2024/04/22 06:21:51;;;;;;;6.57;5.90;;;4.50;99.90;;;;;;5455202;26;20450;-63
2024/04/22 06:24:23;;;;;;;6.47;5.30;;;4.50;99.90;;;;;;5455405;26;20449;-63
2024/04/22 06:26:50;;;;;;;6.80;5.70;;;4.60;99.90;;;;;;5423585;26;20850;-64
2024/04/22 06:29:20;;;;;;;6.60;6.00;;;4.60;99.90;;;;;;5455460;26;20449;-63
2024/04/22 06:31:48;;;;;;;6.50;5.77;;;4.60;99.90;;;;;;5455155;26;20505;-63
2024/04/22 06:34:17;;;;;;;7.27;5.20;;;4.60;99.90;;;;;;5455080;26;20879;-63
2024/04/22 06:36:45;;;;;;;6.70;6.00;;;4.60;99.90;;;;;;5455002;26;20547;-65
2024/04/22 06:39:16;;;;;;;6.10;5.23;;;4.60;99.90;;;;;;5455015;26;20490;-64
2024/04/22 06:41:46;;;;;;;6.40;5.80;;;4.60;99.90;;;;;;5456718;26;20551;-64
2024/04/22 06:44:16;;;;;;;7.30;5.47;;;4.70;99.90;;;;;;5455292;26;20437;-64
2024/04/22 06:46:46;;;;;;;5.97;5.37;;;4.70;99.90;;;;;;5455165;26;20548;-64
2024/04/22 06:49:13;;;;;;;6.23;5.40;;;4.70;99.90;;;;;;5456753;26;20390;-64
2024/04/22 06:51:43;;;;;;;6.17;5.20;;;4.80;99.90;;;;;;5454848;26;20493;-64
2024/04/22 06:54:10;;;;;;;6.03;5.33;;;4.80;99.90;;;;;;5454808;26;20433;-64
2024/04/22 06:56:40;;;;;;;6.03;5.43;;;4.80;99.90;;;;;;5454717;26;20433;-64
2024/04/22 06:59:14;;;;;;;5.50;5.00;;;4.90;99.90;;;;;;5455995;26;20394;-64
2024/04/22 07:01:44;;;;;;;8.03;5.87;;;4.90;99.90;;;;;;5454770;26;20494;-65
2024/04/22 07:04:11;;;;;;;6.00;5.40;;;5.00;99.90;;;;;;5454725;26;20973;-63
2024/04/22 07:06:41;;;;;;;6.30;5.70;;;5.00;99.90;;;;;;5454518;26;20492;-64
2024/04/22 07:09:09;;;;;;;7.27;5.83;;;5.00;99.90;;;;;;5454578;26;20430;-64
2024/04/22 07:11:40;;;;;;;6.00;5.40;;;5.10;99.90;;;;;;5454337;26;21108;-64
2024/04/22 07:14:10;;;;;;;5.97;5.37;;;5.20;99.90;;;;;;5454359;26;20483;-63
2024/04/22 07:16:43;;;;;;;6.93;5.30;;;5.20;99.90;;;;;;5454511;26;20450;-63
2024/04/22 07:19:14;;;;;;;6.40;5.33;;;5.30;99.90;;;;;;5456127;26;20800;-64
2024/04/22 07:21:44;;;;;;;7.30;5.10;;;5.30;99.90;;;;;;5455868;26;20962;-64
2024/04/22 07:24:12;;;;;;;6.10;5.50;;;5.30;99.90;;;;;;5454389;26;20507;-64
2024/04/22 07:26:42;;;;;;;5.30;4.80;;;5.40;99.90;;;;;;5454411;26;20451;-63
2024/04/22 07:29:10;;;;;;;7.40;5.60;;;5.40;99.90;;;;;;5454090;26;21056;-63
2024/04/22 07:31:45;;;;;;;5.73;5.23;;;5.50;99.90;;;;;;5454185;26;20788;-63
2024/04/22 07:34:13;;;;;;;6.33;4.97;;;5.50;99.90;;;;;;5456073;26;20430;-64
2024/04/22 07:36:49;;;;;;;5.67;5.07;;;5.60;99.90;;;;;;5453970;26;20434;-63
2024/04/22 07:39:17;;;;;;;7.13;4.87;;;5.70;99.90;;;;;;5454749;26;20480;-64
2024/04/22 07:41:47;;;;;;;6.53;5.30;;;5.80;99.90;;;;;;5454137;26;20458;-64
2024/04/22 07:44:14;;;;;;;5.70;5.07;;;5.90;99.90;;;;;;5453674;26;21032;-63
2024/04/22 07:46:47;;;;;;;6.57;4.90;;;6.00;99.90;;;;;;5422046;26;20453;-64
2024/04/22 07:49:15;;;;;;;6.77;6.07;;;6.10;99.90;;;;;;5455121;26;20953;-64
2024/04/22 07:51:45;;;;;;;6.17;5.63;;;6.20;99.90;;;;;;5453820;26;20508;-64
2024/04/22 07:54:13;;;;;;;6.87;5.10;;;6.30;99.90;;;;;;5452926;26;20489;-63
2024/04/22 07:56:43;;;;;;;5.23;4.53;;;6.40;99.90;;;;;;5453676;26;20443;-64
2024/04/22 07:59:15;;;;;;;5.33;4.83;;;6.50;99.90;;;;;;5422000;26;21032;-64
2024/04/22 08:01:48;;;;;;;5.70;5.10;;;6.60;99.90;;;;;;5453468;26;20451;-64
2024/04/22 08:04:16;;;;;;;5.20;4.27;;;6.60;99.90;;;;;;5454927;26;20440;-63
2024/04/22 08:06:48;;;;;;;6.20;4.93;;;6.70;99.90;;;;;;5453530;26;20456;-64
2024/04/22 08:09:16;;;;;;;5.30;4.80;;;6.80;99.90;;;;;;5454964;26;20468;-64
2024/04/22 08:11:46;;;;;;;5.60;5.10;;;6.90;99.90;;;;;;5453621;26;20564;-64
2024/04/22 08:14:13;;;;;;;5.67;5.17;;;6.90;99.90;;;;;;5454734;26;20445;-64
2024/04/22 08:16:43;;;;;;;5.20;4.70;;;6.90;99.90;;;;;;5453240;26;20444;-64
2024/04/22 08:19:13;;;;;;;8.10;5.37;;;7.00;99.90;;;;;;5453378;26;20444;-63
2024/04/22 08:21:44;;;;;;;6.70;4.40;;;7.10;99.90;;;;;;5453085;26;20454;-64
2024/04/22 08:24:12;;;;;;;4.80;4.40;;;7.20;99.90;;;;;;5454555;26;20398;-64
2024/04/22 08:26:42;;;;;;;4.77;4.03;;;7.30;99.90;;;;;;5453599;26;20442;-64
2024/04/22 08:29:09;;;;;;;4.50;4.10;;;7.30;99.90;;;;;;5453462;26;20434;-64
2024/04/22 08:31:39;;;;;;;4.53;4.13;;;7.40;99.90;;;;;;5453550;26;20445;-63
2024/04/22 08:34:06;;;;;;;4.93;4.43;;;7.50;99.90;;;;;;5453561;26;20453;-64
2024/04/22 08:36:39;;;;;;;5.60;4.40;;;7.60;99.90;;;;;;5453561;26;20438;-63
2024/04/22 08:39:10;;;;;;;4.97;4.57;;;7.60;99.90;;;;;;5454160;26;20851;-63
2024/04/22 08:41:40;;;;;;;5.90;5.30;;;7.70;99.90;;;;;;5453408;26;20457;-63
2024/04/22 08:44:08;;;;;;;5.10;4.70;;;7.70;99.90;;;;;;5453520;26;20982;-63
2024/04/22 08:46:38;;;;;;;4.90;4.33;;;7.70;99.90;;;;;;5453067;26;20437;-64
2024/04/22 08:49:06;;;;;;;4.93;4.50;;;7.70;99.90;;;;;;5453160;26;21027;-63
2024/04/22 08:51:40;;;;;;;7.80;5.00;;;7.70;99.90;;;;;;5453360;26;20461;-63
2024/04/22 08:54:08;;;;;;;5.17;4.63;;;7.70;99.90;;;;;;5454525;26;20394;-63
2024/04/22 08:56:39;;;;;;;6.37;5.43;;;7.80;99.90;;;;;;5453302;26;20794;-64
2024/04/22 08:59:06;;;;;;;5.37;4.87;;;7.80;99.90;;;;;;5454140;26;20452;-64
2024/04/22 09:01:44;;;;;;;5.60;5.00;;;7.90;99.90;;;;;;5454553;26;20453;-64
2024/04/22 09:04:11;;;;;;;6.10;5.50;;;8.00;99.90;;;;;;5453003;26;20433;-64
2024/04/22 09:06:44;;;;;;;7.43;6.30;;;8.00;99.90;;;;;;5456073;26;20441;-63
2024/04/22 09:09:11;;;;;;;5.80;5.20;;;8.10;99.90;;;;;;5457809;26;20826;-64
2024/04/22 09:11:52;;;;;;;6.10;5.50;;;8.20;99.90;;;;;;5456890;26;20477;-64
2024/04/22 09:14:36;;;;;;;6.03;5.40;;;8.20;99.90;;;;;;5457663;26;20421;-63
2024/04/22 09:17:07;;;;;;;6.17;5.57;;;8.30;99.90;;;;;;5456014;26;20433;-64
2024/04/22 09:19:35;;;;;;;6.53;5.83;;;8.40;99.90;;;;;;5456409;26;20434;-64
2024/04/22 09:22:07;;;;;;;6.40;5.80;;;8.40;99.90;;;;;;5456058;26;20491;-64
2024/04/22 09:24:35;;;;;;;7.50;5.90;;;8.40;99.90;;;;;;5457030;26;20427;-64
2024/04/22 09:27:05;;;;;;;5.90;5.40;;;8.40;99.90;;;;;;5456278;26;20437;-64
2024/04/22 09:29:41;;;;;;;7.37;6.27;;;8.50;99.90;;;;;;5456912;26;20424;-64
2024/04/22 09:32:14;;;;;;;7.50;6.00;;;8.50;99.80;;;;;;5456933;26;20426;-64
2024/04/22 09:34:43;;;;;;;6.33;5.40;;;8.50;99.80;;;;;;5457162;26;20399;-64
2024/04/22 09:37:16;;;;;;;6.70;6.00;;;8.60;99.80;;;;;;5455665;26;20782;-64
2024/04/22 09:39:46;;;;;;;6.40;5.77;;;8.70;99.80;;;;;;5456834;26;20438;-64
2024/04/22 09:42:16;;;;;;;6.70;6.10;;;8.80;99.70;;;;;;5455734;26;20500;-64
2024/04/22 09:44:45;;;;;;;7.03;6.43;;;8.80;99.50;;;;;;5424084;26;20469;-64
2024/04/22 09:47:16;;;;;;;7.27;6.60;;;8.80;99.40;;;;;;5455665;26;20450;-64
2024/04/22 09:49:46;;;;;;;7.77;6.87;;;8.80;99.40;;;;;;5456653;26;20797;-64
2024/04/22 09:52:21;;;;;;;8.53;7.27;;;8.90;99.40;;;;;;5455480;26;20454;-64
2024/04/22 09:54:49;;;;;;;7.80;7.10;;;8.90;99.40;;;;;;5456787;26;20500;-64
2024/04/22 09:57:23;;;;;;;7.93;6.47;;;9.00;99.30;;;;;;5455477;26;20441;-65
2024/04/22 09:59:50;;;;;;;7.37;6.67;;;9.00;99.10;;;;;;5456529;26;20505;-65
2024/04/22 10:02:20;;;;;;;10.03;7.03;;;9.10;98.90;;;;;;5455318;26;20437;-65
2024/04/22 10:04:48;;;;;;;7.70;6.90;;;9.10;98.90;;;;;;5457576;26;20437;-65
2024/04/22 10:07:21;;;;;;;8.53;6.67;;;9.20;98.80;;;;;;5458975;26;20442;-64
2024/04/22 10:09:49;;;;;;;7.83;7.13;;;9.20;98.60;;;;;;5457353;26;20453;-64
2024/04/22 10:12:26;;;;;;;9.70;7.57;;;9.20;98.20;;;;;;5456226;26;21013;-64
2024/04/22 10:15:05;;;;;;;9.13;7.00;;;9.20;97.90;;;;;;5456922;26;20406;-64
2024/04/22 10:17:35;;;;;;;7.67;6.33;;;9.20;97.70;;;;;;5455883;26;20433;-64
2024/04/22 10:20:05;;;;;;;8.43;6.57;;;9.10;97.60;;;;;;5456682;26;20486;-64
2024/04/22 10:22:40;;;;;;;6.03;5.50;;;9.10;97.50;;;;;;5455322;26;20504;-64
2024/04/22 10:25:08;;;;;;;6.50;5.80;;;9.20;97.40;;;;;;5423342;26;21058;-64
2024/04/22 10:27:39;;;;;;;5.83;5.23;;;9.30;97.50;;;;;;5455275;26;20512;-64
2024/04/22 10:30:07;;;;;;;6.17;5.57;;;9.30;97.30;;;;;;5456770;26;20822;-63
2024/04/22 10:32:38;;;;;;;8.80;5.20;;;9.40;97.10;;;;;;5455111;26;20958;-64
2024/04/22 10:35:06;;;;;;;6.50;4.80;;;9.40;96.80;;;;;;5455070;26;20526;-64
2024/04/22 10:37:38;;;;;;;7.33;5.50;;;9.40;96.50;;;;;;5423009;26;20554;-64
2024/04/22 10:40:07;;;;;;;6.97;4.13;;;9.30;96.40;;;;;;5456220;26;20442;-64
2024/04/22 10:42:37;;;;;;;4.80;3.80;;;9.40;96.00;;;;;;5455082;26;20454;-64
2024/04/22 10:45:05;;;;;;;4.37;3.37;;;9.50;95.80;;;;;;5454867;26;20484;-64
2024/04/22 10:47:35;;;;;;;4.70;4.20;;;9.50;95.90;;;;;;5454873;26;20433;-64
2024/04/22 10:50:12;;;;;;;4.30;3.87;;;9.60;95.60;;;;;;5456153;26;20505;-64
2024/04/22 10:52:44;;;;;;;4.10;3.53;;;9.70;95.40;;;;;;5456358;26;20459;-64
2024/04/22 10:55:12;;;;;;;5.87;3.73;;;9.70;95.30;;;;;;5456242;26;20394;-64
2024/04/22 10:57:42;;;;;;;5.47;4.23;;;9.70;95.20;;;;;;5454672;26;20437;-64
2024/04/22 11:00:10;;;;;;;4.37;3.97;;;9.80;95.00;;;;;;5455835;26;20442;-64
2024/04/22 11:02:42;;;;;;;7.57;4.80;;;9.80;95.00;;;;;;5454882;26;20433;-64
2024/04/22 11:05:10;;;;;;;5.13;4.20;;;9.70;95.00;;;;;;5455994;26;20449;-64
2024/04/22 11:07:44;;;;;;;3.53;3.23;;;9.80;95.20;;;;;;5454517;26;20977;-64
2024/04/22 11:10:12;;;;;;;5.03;4.10;;;9.90;95.30;;;;;;5455313;26;20505;-64
2024/04/22 11:12:42;;;;;;;6.83;5.10;;;9.90;95.10;;;;;;5455944;26;20402;-64
2024/04/22 11:15:12;;;;;;;5.53;4.47;;;9.90;95.00;;;;;;5456042;26;20398;-64
2024/04/22 11:17:40;;;;;;;5.30;4.70;;;9.80;94.80;;;;;;5422601;26;20486;-64
2024/04/22 11:20:11;;;;;;;4.60;4.20;;;9.70;94.80;;;;;;5454459;26;20457;-64
2024/04/22 11:22:43;;;;;;;4.57;4.13;;;9.70;94.50;;;;;;5422649;26;20461;-64
2024/04/22 11:25:13;;;;;;;4.97;4.00;;;9.60;94.30;;;;;;5456103;26;20454;-64
2024/04/22 11:27:41;;;;;;;5.83;4.10;;;9.60;94.30;;;;;;5453944;26;20518;-64
2024/04/22 11:30:12;;;;;;;5.80;4.30;;;9.60;94.20;;;;;;5454093;26;20445;-64
2024/04/22 11:32:39;;;;;;;4.53;4.13;;;9.60;94.10;;;;;;5455579;26;20486;-64
2024/04/22 11:35:10;;;;;;;6.37;3.90;;;9.60;94.10;;;;;;5454138;26;20520;-64
2024/04/22 11:37:37;;;;;;;4.00;3.30;;;9.60;94.20;;;;;;5455973;26;20394;-64
2024/04/22 11:40:11;;;;;;;4.00;3.60;;;9.70;94.00;;;;;;5453970;26;20449;-64
2024/04/22 11:42:39;;;;;;;4.80;3.67;;;9.80;93.80;;;;;;5455419;26;20398;-64
2024/04/22 11:45:09;;;;;;;3.30;3.00;;;9.80;93.80;;;;;;5454062;26;20559;-64
2024/04/22 11:47:37;;;;;;;7.97;3.90;;;9.80;94.00;;;;;;5455504;26;20493;-64
2024/04/22 11:50:07;;;;;;;5.40;4.83;;;9.70;94.60;;;;;;5421839;26;20465;-64
2024/04/22 11:52:35;;;;;;;5.57;4.90;;;9.60;95.20;;;;;;5454204;26;20446;-64
2024/04/22 11:55:05;;;;;;;4.77;4.37;;;9.50;95.70;;;;;;5454302;26;20441;-64
2024/04/22 11:57:35;;;;;;;5.37;4.90;;;9.40;96.30;;;;;;5455869;26;20430;-64
2024/04/22 12:00:06;;;;;;;5.33;4.90;;;9.20;96.60;;;;;;5453616;26;20449;-64
2024/04/22 12:02:34;;;;;;;5.20;4.70;;;9.10;96.90;;;;;;5455418;26;20708;-64
2024/04/22 12:05:09;;;;;;;5.53;4.90;;;9.00;97.20;;;;;;5453725;26;20450;-64
2024/04/22 12:07:36;;;;;;;5.67;5.07;;;8.90;97.30;;;;;;5455041;26;20393;-64
2024/04/22 12:10:07;;;;;;;5.70;5.13;;;8.80;97.40;;;;;;5453279;26;20575;-64
2024/04/22 12:12:37;;;;;;;6.17;5.50;;;8.80;97.60;;;;;;5454906;26;20820;-64
2024/04/22 12:15:08;;;;;;;5.90;5.30;;;8.80;97.70;;;;;;5453350;26;20437;-64
2024/04/22 12:17:35;;;;;;;5.07;4.60;;;8.80;97.80;;;;;;5454183;26;20429;-64
2024/04/22 12:20:06;;;;;;;6.00;5.27;;;8.90;97.90;;;;;;5453415;26;20558;-64
2024/04/22 12:22:33;;;;;;;5.13;4.63;;;9.00;98.10;;;;;;5454838;26;20426;-64
2024/04/22 12:25:03;;;;;;;5.03;4.63;;;9.00;98.00;;;;;;5453557;26;20498;-64
2024/04/22 12:27:31;;;;;;;5.37;4.37;;;9.10;98.00;;;;;;5453017;26;20552;-64
2024/04/22 12:30:04;;;;;;;5.23;4.73;;;9.20;97.90;;;;;;5453109;26;20568;-64
2024/04/22 12:32:31;;;;;;;3.87;3.27;;;9.30;97.80;;;;;;5454357;26;20394;-64
2024/04/22 12:35:04;;;;;;;5.00;4.37;;;9.30;97.60;;;;;;5453052;26;20502;-64
2024/04/22 12:37:31;;;;;;;4.77;4.20;;;9.40;97.50;;;;;;5453407;26;20493;-64
2024/04/22 12:40:01;;;;;;;5.20;4.70;;;9.40;97.30;;;;;;5455533;26;20457;-64
2024/04/22 12:42:29;;;;;;;4.43;4.03;;;9.50;97.20;;;;;;5425272;26;20497;-64
2024/04/22 12:44:59;;;;;;;4.50;3.73;;;9.60;97.00;;;;;;5424895;26;20501;-64
2024/04/22 12:53:04;;;;;;;4.20;3.50;;;9.60;96.50;;;;;;5457219;26;20433;-64
2024/04/22 12:55:34;;;;;;;5.80;4.33;;;9.60;96.50;;;;;;5424515;26;20445;-64
2024/04/22 12:58:06;;;;;;;4.90;4.47;;;9.70;96.50;;;;;;5457341;26;20435;-64
2024/04/22 13:00:36;;;;;;;4.57;3.87;;;9.80;96.50;;;;;;5455995;26;20499;-64
2024/04/22 13:03:09;;;;;;;3.97;3.57;;;9.90;96.40;;;;;;5457364;26;20462;-64
2024/04/22 13:05:39;;;;;;;5.30;4.33;;;9.90;96.10;;;;;;5457184;26;20394;-64
2024/04/22 13:08:09;;;;;;;4.53;4.13;;;9.90;95.90;;;;;;5456129;26;20449;-64
2024/04/22 13:10:39;;;;;;;4.53;4.10;;;9.90;95.80;;;;;;5456574;26;20461;-64
2024/04/22 13:13:10;;;;;;;5.20;4.30;;;9.90;95.90;;;;;;5460272;26;20413;-65
2024/04/22 13:15:40;;;;;;;4.30;3.90;;;9.90;96.00;;;;;;5457508;26;20437;-65
2024/04/22 13:18:13;;;;;;;4.00;3.70;;;10.00;95.60;;;;;;5457115;26;20894;-64
2024/04/22 13:20:43;;;;;;;5.00;4.50;;;10.00;95.60;;;;;;5456258;26;20494;-65